Vadito, NM

6:34 PM MDT on May 27, 2017 (GMT -0600)
Bell Mountain Ranch | | Change Station

Elev 7660 ft 36.19 °N, 105.66 °W | Updated 3 minutes ago

Clear
Clear
65.8 °F
Feels Like 65.8 °F
N
6.9
Wind Variable Wind from South
Gusts 14.5 mph

Today
High -- | Low -- °F
--% Chance of Precip.
Yesterday
High -- | Low -- °F
Precip. -- in
Pressure 30.14 in
Visibility 10.0 miles
Clouds Few 12000 ft
Dew Point 17 °F
Humidity 15%
Rainfall 0.00 in
Snow Depth Not available.
5:48 AM 8:11 PM
Waxing Crescent, 7% visible
METAR KSKX 280015Z AUTO 29017G22KT 10SM FEW120 22/M08 A3014 RMK AO1
Pressure 30.14 in
Visibility 10.0 miles
Clouds Few 12000 ft
Dew Point 17 °F
Humidity 15%
Rainfall 0.00 in
Snow Depth Not available.
5:48 AM 8:11 PM
Waxing Crescent, 7% visible
METAR KSKX 280015Z AUTO 29017G22KT 10SM FEW120 22/M08 A3014 RMK AO1

Get Severe Weather Alerts

Thanks for signing up!

Be on the lookout for a verification email in your inbox.

You'll start receiving the daily forecast at 6 AM.

×

10-Day Weather Forecast

Almanac

Astronomy

May. 27, 2017 Rise Set
Actual Time
Civil Twilight
Nautical Twilight
Astronomical Twilight
Moon
Length of Visible Light
Length of Day
Tomorrow will be .
, % of the Moon is Illuminated

Today's Extremes

State Highs State Lows

Community

WunderPhotos

Category 6

Welcome to Category 6. This is the collective home for Weather Underground's featured writeups by Dr. Jeff Masters (right), Bob Henson (left), Chris Burt, and other regular contributors.

Nearby

Air Quality

  Air Quality AQ Index Pollutant
Not available.

Snow Depth

Station Depth Elevation

Earthquake Activity

City Distance Mag. Time & Date
Minimum magnitude displayed is 2.5.

Coastal Water Temperatures

Place Temperature

Stations

Nearby Weather Stations

Station Location Temp. Windchill Dew Point Humidity Wind Precip. Elev Updated Type
                   

Watches & Warnings

There are currently no watches in effect.